createdAt,value
2019-02-14T00:02:17.360Z,0.30
2019-02-14T00:04:57.246Z,0.40
2019-02-14T00:07:25.255Z,0.30
2019-02-14T00:09:53.098Z,0.30
2019-02-14T00:12:21.803Z,0.30
2019-02-14T00:14:50.170Z,0.20
2019-02-14T00:17:17.951Z,0.20
2019-02-14T00:19:46.735Z,0.30
2019-02-14T00:22:14.807Z,0.20
2019-02-14T00:24:42.711Z,0.20
2019-02-14T00:27:10.797Z,0.20
2019-02-14T00:29:38.650Z,0.10
2019-02-14T00:32:06.386Z,0.10
2019-02-14T00:34:34.487Z,0.20
2019-02-14T00:37:02.741Z,0.10
2019-02-14T00:39:30.632Z,0.10
2019-02-14T00:41:58.522Z,0.10
2019-02-14T00:44:26.569Z,0.00
2019-02-14T00:46:55.154Z,0.00
2019-02-14T00:49:30.660Z,0.10
2019-02-14T00:51:58.364Z,0.00
2019-02-14T00:54:28.963Z,0.10
2019-02-14T00:56:57.769Z,0.10
2019-02-14T00:59:26.513Z,0.10
2019-02-14T01:01:54.311Z,0.20
2019-02-14T01:04:22.217Z,0.10
2019-02-14T01:06:49.986Z,0.20
2019-02-14T01:09:17.719Z,0.20
2019-02-14T01:11:45.567Z,0.10
2019-02-14T01:14:13.437Z,0.20
2019-02-14T01:16:41.190Z,0.20
2019-02-14T01:19:09.564Z,0.20
2019-02-14T01:21:37.414Z,0.20
2019-02-14T01:24:05.184Z,0.20
2019-02-14T01:26:32.986Z,0.20
2019-02-14T01:29:00.958Z,0.20
2019-02-14T01:31:29.561Z,0.10
2019-02-14T01:33:57.671Z,0.10
2019-02-14T01:36:26.588Z,0.10
2019-02-14T01:38:57.699Z,0.10
2019-02-14T01:41:26.483Z,0.10
2019-02-14T01:43:55.194Z,0.10
2019-02-14T01:46:24.402Z,0.10
2019-02-14T01:48:52.220Z,0.20
2019-02-14T01:51:20.000Z,0.20
2019-02-14T01:53:49.052Z,0.10
2019-02-14T01:56:21.238Z,0.00
2019-02-14T01:58:49.395Z,-0.10
2019-02-14T02:01:17.130Z,-0.20
2019-02-14T02:03:45.311Z,-0.30
2019-02-14T02:06:13.177Z,-0.30
2019-02-14T02:08:40.926Z,-0.30
2019-02-14T02:11:09.188Z,-0.30
2019-02-14T02:13:40.049Z,-0.30
2019-02-14T02:16:08.062Z,-0.20
2019-02-14T02:18:38.821Z,-0.20
2019-02-14T02:21:06.792Z,-0.20
2019-02-14T02:23:34.560Z,-0.20
2019-02-14T02:26:02.602Z,-0.20
2019-02-14T02:28:30.429Z,-0.20
2019-02-14T02:30:58.466Z,-0.20
2019-02-14T02:33:27.250Z,-0.20
2019-02-14T02:36:04.029Z,-0.30
2019-02-14T02:38:32.259Z,-0.30
2019-02-14T02:40:59.984Z,-0.30
2019-02-14T02:43:27.721Z,-0.20
2019-02-14T02:45:56.212Z,-0.30
2019-02-14T02:48:23.986Z,-0.40
2019-02-14T02:50:52.041Z,-0.50
2019-02-14T02:53:20.360Z,-0.50
2019-02-14T02:55:48.128Z,-0.40
2019-02-14T02:58:15.977Z,-0.40
2019-02-14T03:00:43.811Z,-0.30
2019-02-14T03:03:11.764Z,-0.30
2019-02-14T03:05:39.489Z,-0.30
2019-02-14T03:08:07.544Z,-0.20
2019-02-14T03:10:35.414Z,-0.10
2019-02-14T03:13:03.327Z,-0.10
2019-02-14T03:15:31.222Z,-0.10
2019-02-14T03:18:03.108Z,-0.30
2019-02-14T03:20:30.932Z,-0.40
2019-02-14T03:22:59.984Z,-0.20
2019-02-14T03:25:27.685Z,-0.20
2019-02-14T03:27:55.806Z,-0.30
2019-02-14T03:30:23.570Z,-0.30
2019-02-14T03:32:51.755Z,-0.30
2019-02-14T03:35:19.451Z,-0.20
2019-02-14T03:37:47.362Z,-0.20
2019-02-14T03:40:15.100Z,-0.30
2019-02-14T03:42:43.093Z,-0.30
2019-02-14T03:45:15.652Z,-0.30
2019-02-14T03:47:43.359Z,-0.50
2019-02-14T03:50:11.185Z,-0.50
2019-02-14T03:52:38.907Z,-0.40
2019-02-14T03:55:07.162Z,-0.40
2019-02-14T03:57:34.886Z,-0.30
2019-02-14T04:00:10.999Z,-0.20
2019-02-14T04:02:38.991Z,-0.20
2019-02-14T04:05:06.823Z,-0.20
2019-02-14T04:07:34.722Z,-0.20
2019-02-14T04:10:02.650Z,-0.20
2019-02-14T04:12:30.498Z,-0.30
2019-02-14T04:15:00.532Z,-0.30
2019-02-14T04:17:28.456Z,-0.30
2019-02-14T04:19:56.912Z,-0.30
2019-02-14T04:22:24.672Z,-0.30
2019-02-14T04:24:52.850Z,-0.20
2019-02-14T04:27:20.611Z,-0.10
2019-02-14T04:29:48.478Z,-0.10
2019-02-14T04:32:16.374Z,-0.10
2019-02-14T04:34:44.751Z,-0.20
2019-02-14T04:37:16.890Z,-0.30
2019-02-14T04:39:46.007Z,-0.40
2019-02-14T04:42:16.435Z,-0.60
2019-02-14T04:44:45.224Z,-0.50
2019-02-14T04:47:12.997Z,-0.60
2019-02-14T04:49:42.004Z,-0.60
2019-02-14T04:52:09.875Z,-0.60
2019-02-14T04:54:37.814Z,-0.50
2019-02-14T04:57:05.709Z,-0.50
2019-02-14T04:59:33.549Z,-0.50
2019-02-14T05:02:02.477Z,-0.50
2019-02-14T05:04:30.356Z,-0.50
2019-02-14T05:06:58.073Z,-0.40
2019-02-14T05:09:26.030Z,-0.50
2019-02-14T05:11:54.954Z,-0.50
2019-02-14T05:14:22.618Z,-0.60
2019-02-14T05:16:53.846Z,-0.60
2019-02-14T05:19:22.112Z,-0.50
2019-02-14T05:21:50.912Z,-0.60
2019-02-14T05:24:18.694Z,-0.60
2019-02-14T05:26:46.629Z,-0.50
2019-02-14T05:29:14.292Z,-0.50
2019-02-14T05:31:42.674Z,-0.50
2019-02-14T05:34:10.770Z,-0.50
2019-02-14T05:36:38.505Z,-0.50
2019-02-14T05:39:06.449Z,-0.60
2019-02-14T05:41:34.445Z,-0.60
2019-02-14T05:44:02.287Z,-0.60
2019-02-14T05:46:33.102Z,-0.60
2019-02-14T05:49:01.028Z,-0.60
2019-02-14T05:51:28.783Z,-0.60
2019-02-14T05:53:57.931Z,-0.60
2019-02-14T05:56:25.753Z,-0.60
2019-02-14T05:58:53.646Z,-0.60
2019-02-14T06:01:21.437Z,-0.60
2019-02-14T06:03:49.170Z,-0.50
2019-02-14T06:06:16.844Z,-0.60
2019-02-14T06:08:44.802Z,-0.60
2019-02-14T06:11:14.099Z,-0.60
2019-02-14T06:13:41.989Z,-0.60
2019-02-14T06:16:10.270Z,-0.60
2019-02-14T06:18:38.458Z,-0.60
2019-02-14T06:21:06.193Z,-0.60
2019-02-14T06:23:33.937Z,-0.60
2019-02-14T06:26:01.883Z,-0.50
2019-02-14T06:28:30.227Z,-0.40
2019-02-14T06:30:58.293Z,-0.30
2019-02-14T06:33:27.234Z,-0.30
2019-02-14T06:35:54.930Z,-0.20
2019-02-14T06:38:23.166Z,-0.20
2019-02-14T06:40:53.962Z,-0.10
2019-02-14T06:43:21.920Z,-0.20
2019-02-14T06:45:51.924Z,-0.10
2019-02-14T06:48:20.139Z,-0.20
2019-02-14T06:50:50.626Z,-0.10
2019-02-14T06:53:18.616Z,-0.20
2019-02-14T06:55:47.542Z,-0.10
2019-02-14T06:58:15.472Z,-0.10
2019-02-14T07:00:43.308Z,-0.10
2019-02-14T07:03:11.551Z,-0.10
2019-02-14T07:05:39.386Z,-0.10
2019-02-14T07:08:07.234Z,-0.20
2019-02-14T07:10:35.692Z,-0.20
2019-02-14T07:13:03.423Z,-0.20
2019-02-14T07:15:31.238Z,-0.30
2019-02-14T07:17:59.129Z,-0.40
2019-02-14T07:20:26.816Z,-0.40
2019-02-14T07:22:54.721Z,-0.30
2019-02-14T07:25:23.716Z,-0.20
2019-02-14T07:27:51.474Z,-0.20
2019-02-14T07:30:20.316Z,-0.10
2019-02-14T07:32:48.592Z,0.00
2019-02-14T07:35:16.441Z,0.10
2019-02-14T07:37:44.252Z,0.00
2019-02-14T07:40:13.036Z,0.10
2019-02-14T07:42:40.730Z,0.20
2019-02-14T07:45:10.304Z,0.20
2019-02-14T07:47:38.154Z,0.30
2019-02-14T07:50:06.602Z,0.40
2019-02-14T07:52:34.537Z,0.50
2019-02-14T07:55:05.789Z,0.70
2019-02-14T07:57:34.130Z,1.00
2019-02-14T08:00:03.125Z,1.50
2019-02-14T08:02:31.988Z,2.10
2019-02-14T08:04:59.750Z,2.10
2019-02-14T08:07:35.490Z,2.00
2019-02-14T08:09:57.468Z,4.00
2019-02-14T08:12:25.514Z,3.40
2019-02-14T08:14:53.280Z,2.70
2019-02-14T08:17:21.061Z,2.30
2019-02-14T08:19:48.797Z,2.00
2019-02-14T08:22:18.921Z,1.90
2019-02-14T08:24:46.673Z,1.80
2019-02-14T08:27:14.387Z,2.00
2019-02-14T08:29:42.044Z,2.20
2019-02-14T08:32:12.460Z,2.00
2019-02-14T08:34:40.613Z,1.80
2019-02-14T08:37:10.099Z,2.00
2019-02-14T08:39:40.681Z,2.10
2019-02-14T08:42:08.882Z,2.80
2019-02-14T08:44:36.769Z,3.40
2019-02-14T08:47:04.611Z,5.00
2019-02-14T08:49:32.709Z,3.90
2019-02-14T08:52:00.393Z,2.80
2019-02-14T08:54:31.227Z,2.20
2019-02-14T08:57:01.463Z,2.00
2019-02-14T08:59:32.531Z,2.00
2019-02-14T09:02:00.451Z,2.20
2019-02-14T09:04:30.685Z,2.20
2019-02-14T09:06:58.450Z,2.40
2019-02-14T09:09:26.304Z,2.40
2019-02-14T09:11:54.132Z,2.40
2019-02-14T09:14:22.371Z,2.50
2019-02-14T09:16:51.306Z,2.40
2019-02-14T09:19:19.162Z,2.50
2019-02-14T09:21:47.270Z,2.40
2019-02-14T09:24:15.879Z,2.40
2019-02-14T09:26:43.789Z,2.50
2019-02-14T09:29:14.326Z,2.60
2019-02-14T09:31:42.173Z,2.70
2019-02-14T09:34:13.098Z,2.70
2019-02-14T09:36:41.153Z,2.80
2019-02-14T09:39:11.507Z,2.80
2019-02-14T09:41:39.488Z,2.50
2019-02-14T09:44:08.090Z,2.60
2019-02-14T09:46:36.009Z,2.80
2019-02-14T09:49:06.555Z,2.90
2019-02-14T09:51:34.761Z,3.00
2019-02-14T09:54:02.659Z,3.10
2019-02-14T09:56:32.120Z,3.10
2019-02-14T09:58:59.863Z,3.30
2019-02-14T10:01:34.286Z,3.40
2019-02-14T10:04:02.144Z,3.50
2019-02-14T10:06:36.710Z,3.60
2019-02-14T10:09:05.464Z,3.80
2019-02-14T10:11:33.806Z,3.90
2019-02-14T10:14:03.655Z,4.00
2019-02-14T10:16:31.607Z,4.10
2019-02-14T10:19:02.179Z,4.00
2019-02-14T10:21:29.870Z,4.10
2019-02-14T10:23:57.664Z,4.10
2019-02-14T10:26:25.643Z,4.30
2019-02-14T10:28:53.880Z,4.50
2019-02-14T10:31:25.175Z,4.70
2019-02-14T10:33:52.987Z,4.80
2019-02-14T10:36:20.943Z,5.00
2019-02-14T10:38:51.633Z,5.10
2019-02-14T10:41:19.571Z,5.10
2019-02-14T10:43:49.707Z,5.00
2019-02-14T10:46:17.549Z,5.20
2019-02-14T10:48:48.530Z,5.40
2019-02-14T10:51:16.455Z,5.40
2019-02-14T10:53:46.396Z,5.50
2019-02-14T10:56:17.545Z,5.70
2019-02-14T10:58:45.254Z,5.70
2019-02-14T11:01:13.524Z,5.70
2019-02-14T11:03:44.723Z,5.70
2019-02-14T11:06:12.477Z,5.70
2019-02-14T11:08:40.868Z,5.90
2019-02-14T11:11:11.483Z,6.00
2019-02-14T11:13:42.209Z,6.20
2019-02-14T11:16:11.149Z,6.50
2019-02-14T11:18:44.287Z,6.70
2019-02-14T11:21:12.512Z,6.90
2019-02-14T11:23:41.163Z,7.00
2019-02-14T11:26:10.064Z,6.90
2019-02-14T11:28:39.827Z,7.00
2019-02-14T11:31:07.852Z,7.20
2019-02-14T11:33:38.784Z,7.20
2019-02-14T11:36:06.648Z,7.20
2019-02-14T11:38:40.973Z,7.30
2019-02-14T11:41:08.958Z,7.40
2019-02-14T11:43:36.722Z,7.30
2019-02-14T11:46:04.470Z,7.20
2019-02-14T11:48:38.733Z,7.20
2019-02-14T11:51:09.771Z,7.20
2019-02-14T11:53:38.079Z,7.10
2019-02-14T11:56:07.169Z,7.10
2019-02-14T11:58:35.164Z,7.10
2019-02-14T12:01:02.905Z,7.10
2019-02-14T12:03:30.828Z,7.20
2019-02-14T12:05:58.646Z,7.30
2019-02-14T12:08:29.682Z,7.40
2019-02-14T12:10:58.650Z,7.70
2019-02-14T12:13:30.034Z,7.80
2019-02-14T12:15:57.665Z,8.00
2019-02-14T12:18:28.160Z,8.10
2019-02-14T12:20:55.860Z,8.40
2019-02-14T12:23:26.659Z,8.60
2019-02-14T12:25:57.321Z,8.70
2019-02-14T12:28:25.055Z,8.90
2019-02-14T12:30:53.127Z,9.00
2019-02-14T12:33:20.921Z,9.10
2019-02-14T12:35:48.585Z,9.30
2019-02-14T12:38:16.314Z,9.40
2019-02-14T12:40:44.097Z,9.40
2019-02-14T12:43:11.745Z,9.50
2019-02-14T12:45:44.411Z,9.40
2019-02-14T12:48:16.378Z,9.60
2019-02-14T12:50:46.881Z,9.70
2019-02-14T12:53:15.955Z,9.80
2019-02-14T12:55:43.769Z,9.80
2019-02-14T12:58:12.643Z,9.90
2019-02-14T13:00:45.852Z,9.90
2019-02-14T13:03:16.589Z,10.00
2019-02-14T13:05:45.638Z,9.90
2019-02-14T13:08:14.072Z,10.00
2019-02-14T13:10:42.481Z,10.00
2019-02-14T13:13:11.299Z,9.80
2019-02-14T13:15:39.287Z,10.00
2019-02-14T13:18:11.122Z,10.00
2019-02-14T13:20:40.652Z,10.10
2019-02-14T13:23:11.522Z,10.30
2019-02-14T13:25:39.462Z,10.30
2019-02-14T13:28:10.848Z,10.20
2019-02-14T13:30:50.051Z,10.10
2019-02-14T13:33:18.310Z,10.00
2019-02-14T13:35:46.122Z,10.00
2019-02-14T13:38:13.887Z,10.00
2019-02-14T13:40:42.514Z,10.00
2019-02-14T13:43:10.597Z,10.20
2019-02-14T13:45:44.927Z,10.30
2019-02-14T13:48:12.823Z,10.30
2019-02-14T13:50:40.459Z,10.30
2019-02-14T13:53:08.409Z,10.40
2019-02-14T13:55:36.668Z,10.50
2019-02-14T13:58:13.601Z,10.60
2019-02-14T14:00:53.004Z,10.50
2019-02-14T14:03:20.878Z,10.50
2019-02-14T14:05:48.589Z,10.50
2019-02-14T14:08:16.613Z,10.60
2019-02-14T14:10:44.658Z,10.50
2019-02-14T14:13:12.423Z,10.60
2019-02-14T14:15:40.207Z,10.60
2019-02-14T14:18:09.736Z,10.70
2019-02-14T14:20:37.927Z,10.80
2019-02-14T14:23:07.065Z,10.70
2019-02-14T14:25:34.783Z,10.80
2019-02-14T14:28:02.911Z,10.80
2019-02-14T14:30:30.667Z,10.70
2019-02-14T14:32:58.444Z,10.70
2019-02-14T14:35:29.497Z,10.80
2019-02-14T14:38:06.180Z,10.70
2019-02-14T14:40:34.081Z,10.70
2019-02-14T14:43:33.340Z,10.80
2019-02-14T14:46:31.628Z,10.70
2019-02-14T14:49:02.662Z,10.60
2019-02-14T14:51:30.376Z,10.60
2019-02-14T14:54:05.547Z,10.60
2019-02-14T14:56:42.101Z,10.40
2019-02-14T14:59:09.988Z,10.40
2019-02-14T15:01:40.609Z,10.50
2019-02-14T15:04:08.355Z,10.40
2019-02-14T15:06:39.716Z,10.30
2019-02-14T15:09:07.653Z,10.10
2019-02-14T15:11:35.363Z,10.10
2019-02-14T15:14:28.263Z,10.10
2019-02-14T15:16:56.087Z,10.10
2019-02-14T15:19:26.708Z,9.90
2019-02-14T15:21:54.571Z,9.70
2019-02-14T15:24:23.182Z,9.60
2019-02-14T15:26:54.879Z,9.50
2019-02-14T15:29:23.217Z,9.50
2019-02-14T15:31:51.373Z,9.60
2019-02-14T15:34:19.307Z,9.50
2019-02-14T15:36:52.304Z,9.50
2019-02-14T15:39:22.545Z,9.40
2019-02-14T15:41:56.172Z,9.30
2019-02-14T15:44:26.893Z,9.20
2019-02-14T15:46:55.160Z,9.20
2019-02-14T15:49:23.555Z,9.00
2019-02-14T15:51:55.553Z,9.00
2019-02-14T15:54:23.526Z,9.00
2019-02-14T15:56:53.638Z,9.00
2019-02-14T15:59:22.913Z,8.90
2019-02-14T16:01:59.553Z,8.80
2019-02-14T16:04:31.940Z,8.70
2019-02-14T16:07:02.737Z,8.50
2019-02-14T16:09:50.708Z,8.30
2019-02-14T16:12:20.007Z,8.20
2019-02-14T16:14:56.721Z,8.10
2019-02-14T16:17:25.768Z,8.00
2019-02-14T16:19:55.943Z,7.90
2019-02-14T16:22:30.060Z,7.80
2019-02-14T16:24:57.164Z,7.70
2019-02-14T16:27:26.745Z,7.60
2019-02-14T16:29:54.836Z,7.50
2019-02-14T16:32:27.572Z,7.50
2019-02-14T16:34:58.887Z,7.50
2019-02-14T16:37:27.154Z,7.50
2019-02-14T16:39:59.837Z,7.40
2019-02-14T16:42:29.794Z,7.40
2019-02-14T16:45:09.496Z,7.20
2019-02-14T16:47:47.784Z,7.10
2019-02-14T16:50:21.365Z,6.90
2019-02-14T16:53:02.443Z,6.90
2019-02-14T16:55:30.383Z,6.80
2019-02-14T16:58:02.987Z,6.70
2019-02-14T17:00:32.739Z,6.60
2019-02-14T17:03:25.888Z,6.60
2019-02-14T17:05:53.628Z,6.50
2019-02-14T17:08:21.631Z,6.40
2019-02-14T17:10:49.893Z,6.40
2019-02-14T17:13:21.562Z,6.30
2019-02-14T17:15:49.316Z,6.20
2019-02-14T17:18:22.314Z,6.20
2019-02-14T17:20:50.303Z,6.20
2019-02-14T17:23:25.543Z,6.10
2019-02-14T17:25:53.411Z,6.10
2019-02-14T17:28:24.007Z,6.00
2019-02-14T17:30:54.880Z,5.90
2019-02-14T17:33:25.531Z,5.80
2019-02-14T17:35:53.484Z,5.90
2019-02-14T17:38:26.142Z,5.80
2019-02-14T17:40:54.549Z,5.80
2019-02-14T17:43:22.255Z,5.70
2019-02-14T17:45:50.381Z,5.70
2019-02-14T17:48:18.344Z,5.60
2019-02-14T17:50:46.413Z,5.70
2019-02-14T17:53:14.761Z,5.60
2019-02-14T17:55:44.235Z,5.60
2019-02-14T17:58:12.086Z,5.50
2019-02-14T18:00:44.206Z,5.50
2019-02-14T18:03:16.833Z,5.40
2019-02-14T18:05:45.288Z,5.40
2019-02-14T18:08:13.461Z,5.30
2019-02-14T18:10:41.654Z,5.30
2019-02-14T18:13:10.562Z,5.20
2019-02-14T18:15:41.395Z,5.20
2019-02-14T18:18:12.397Z,5.10
2019-02-14T18:20:43.459Z,5.00
2019-02-14T18:23:11.540Z,5.00
2019-02-14T18:25:43.169Z,5.00
2019-02-14T18:28:11.166Z,5.00
2019-02-14T18:30:41.544Z,4.90
2019-02-14T18:33:10.290Z,4.80
2019-02-14T18:35:42.416Z,4.80
2019-02-14T18:38:17.445Z,4.80
2019-02-14T18:40:48.406Z,4.80
2019-02-14T18:43:16.524Z,4.70
2019-02-14T18:45:44.731Z,4.70
2019-02-14T18:48:12.653Z,4.60
2019-02-14T18:50:46.169Z,4.50
2019-02-14T18:53:14.367Z,4.30
2019-02-14T18:55:48.637Z,4.20
2019-02-14T18:58:25.771Z,4.20
2019-02-14T19:00:50.655Z,4.00
2019-02-14T19:03:18.507Z,3.90
2019-02-14T19:05:50.692Z,3.90
2019-02-14T19:08:18.762Z,3.80
2019-02-14T19:10:47.028Z,3.80
2019-02-14T19:13:18.878Z,3.80
2019-02-14T19:15:47.352Z,3.80
2019-02-14T19:18:21.539Z,3.70
2019-02-14T19:20:51.096Z,3.70
2019-02-14T19:23:24.301Z,3.70
2019-02-14T19:25:51.766Z,3.60
2019-02-14T19:28:22.464Z,3.50
2019-02-14T19:31:04.294Z,3.50
2019-02-14T19:33:32.288Z,3.50
2019-02-14T19:36:13.300Z,3.50
2019-02-14T19:38:42.961Z,3.50
2019-02-14T19:41:13.177Z,3.40
2019-02-14T19:43:43.448Z,3.30
2019-02-14T19:46:11.138Z,3.30
2019-02-14T19:48:39.233Z,3.20
2019-02-14T19:51:07.063Z,3.20
2019-02-14T19:53:42.192Z,3.20
2019-02-14T19:56:10.974Z,3.10
2019-02-14T19:58:41.777Z,3.00
2019-02-14T20:01:17.805Z,3.00
2019-02-14T20:03:51.790Z,2.90
2019-02-14T20:06:24.759Z,2.90
2019-02-14T20:08:53.511Z,2.90
2019-02-14T20:11:22.757Z,2.90
2019-02-14T20:13:53.719Z,2.90
2019-02-14T20:16:25.690Z,2.90
2019-02-14T20:18:53.739Z,2.90
2019-02-14T20:21:22.059Z,2.80
2019-02-14T20:23:52.057Z,2.80
2019-02-14T20:26:20.157Z,2.80
2019-02-14T20:28:48.586Z,2.70
2019-02-14T20:31:17.213Z,2.50
2019-02-14T20:33:45.507Z,2.40
2019-02-14T20:36:14.242Z,2.40
2019-02-14T20:38:41.874Z,2.30
2019-02-14T20:41:14.536Z,2.30
2019-02-14T20:43:42.811Z,2.30
2019-02-14T20:46:10.804Z,2.40
2019-02-14T20:48:38.890Z,2.30
2019-02-14T20:51:15.481Z,2.30
2019-02-14T20:53:50.991Z,2.30
2019-02-14T20:56:20.836Z,2.40
2019-02-14T20:58:49.044Z,2.30
2019-02-14T21:01:16.854Z,2.30
2019-02-14T21:03:44.675Z,2.20
2019-02-14T21:06:14.562Z,2.20
2019-02-14T21:08:45.374Z,2.20
2019-02-14T21:11:15.279Z,2.10
2019-02-14T21:13:43.382Z,2.00
2019-02-14T21:16:17.270Z,2.00
2019-02-14T21:18:46.592Z,2.00
2019-02-14T21:21:14.750Z,1.90
2019-02-14T21:23:42.543Z,1.80
2019-02-14T21:26:13.693Z,1.70
2019-02-14T21:28:42.322Z,1.60
2019-02-14T21:31:10.067Z,1.70
2019-02-14T21:33:46.841Z,1.60
2019-02-14T21:36:23.314Z,1.60
2019-02-14T21:44:33.579Z,1.50
2019-02-14T21:50:21.122Z,1.30
2019-02-14T21:56:21.833Z,1.40
2019-02-14T22:08:18.860Z,1.40
2019-02-14T22:10:49.367Z,1.40
2019-02-14T22:13:19.375Z,1.40
2019-02-14T22:15:50.062Z,1.30
2019-02-14T22:18:18.517Z,1.30
2019-02-14T22:20:48.452Z,1.20
2019-02-14T22:23:16.202Z,1.20
2019-02-14T22:25:47.231Z,1.10
2019-02-14T22:28:15.055Z,1.10
2019-02-14T22:30:43.052Z,1.00
2019-02-14T22:33:10.887Z,0.90
2019-02-14T22:35:38.539Z,0.90
2019-02-14T22:38:06.566Z,0.90
2019-02-14T22:40:36.976Z,0.90
2019-02-14T22:43:04.885Z,0.90
2019-02-14T22:45:33.293Z,0.80
2019-02-14T22:48:01.247Z,0.90
2019-02-14T22:50:28.982Z,0.90
2019-02-14T22:52:59.661Z,0.90
2019-02-14T22:55:30.395Z,0.90
2019-02-14T22:57:59.438Z,0.90
2019-02-14T23:00:40.365Z,0.80
2019-02-14T23:03:08.215Z,0.80
2019-02-14T23:05:36.701Z,0.70
2019-02-14T23:08:05.906Z,0.70
2019-02-14T23:10:34.198Z,0.70
2019-02-14T23:13:02.174Z,0.70
2019-02-14T23:15:29.905Z,0.70
2019-02-14T23:17:57.846Z,0.70
2019-02-14T23:20:25.615Z,0.70
2019-02-14T23:22:53.603Z,0.60
2019-02-14T23:25:21.350Z,0.60
2019-02-14T23:27:50.810Z,0.60
2019-02-14T23:30:21.725Z,0.60
2019-02-14T23:32:49.422Z,0.50
2019-02-14T23:35:23.795Z,0.40
2019-02-14T23:37:51.732Z,0.40
2019-02-14T23:40:19.552Z,0.50
2019-02-14T23:42:53.354Z,0.40
2019-02-14T23:45:21.739Z,0.40
2019-02-14T23:47:49.691Z,0.40
2019-02-14T23:50:17.550Z,0.50
2019-02-14T23:52:48.423Z,0.50
2019-02-14T23:55:16.500Z,0.50
2019-02-14T23:57:44.821Z,0.50
